Accueil
METAR-TAF:

METAR-TAF

Aéroports :

Aéroport international Julius Nyerere

Dar es Salam, Tanzanie

latitude: 06-52S, longitude: 039-12E, altitude: 55 m

Observation

Le bulletin a été fait il y a 1 heure et 7 minutes, à 18:00 UTC
Vent 4 kt de sud-est
Température 23°C
Humidité 83%
Pression 1018 hPa
Visibilité 10 km ou plus
Quelques nuages à une hauteur de 1500 ft

METAR: HTDA 191800Z 14004KT 9999 FEW015 23/20 Q1018 NOSIG

Heure: 22:07 (19:07 UTC)

Prévision

Le bulletin a été fait il y a 2 heures et 7 minutes, à 17:00 UTC
Prévision valable du 19 à 18 UTC au 20 à 24 UTC
Vent 5 kt de sud-est
Visibilité 10 km ou plus
Nuages épars à une hauteur de 1800 ft
Evoluant progressivement
du 20 à 04 UTC au 20 à 07 UTC
Vent 15 kt de sud/sud-est
Nuages fragmentés à une hauteur de 2200 ft

TAF: HTDA 191700Z 1918/2024 13005KT 9999 SCT018 BECMG 2004/2007 15015KT BKN022

Observations et prévisions météorologiques de plus de 4000 aéroports (messages METAR et TAF).

Les stations disponibles sont représentées par des disques jaunes et rouges sur la carte.

Passer la souris dessus pour voir le nom de la station.

Cliquer dessus pour voir les observations et prévisions météorologiques.

Pour changer de carte: cliquez sur les boutons verts avec une croix noire pour zoomer, sur le bouton vert avec un tiret pour effectuer un zoom arrière, ou sur les flèches vertes pour les cartes adjacentes.


METAR-TAF: